sensor_id;sensor_type;location;lat;lon;timestamp;P1;durP1;ratioP1;P2;durP2;ratioP2
18933;SDS011;9599;53.706;10.384;2023-04-03T00:00:48;7.13;;;2.93;;
18933;SDS011;9599;53.706;10.384;2023-04-03T00:03:18;6.57;;;3.33;;
18933;SDS011;9599;53.706;10.384;2023-04-03T00:05:46;6.90;;;3.00;;
18933;SDS011;9599;53.706;10.384;2023-04-03T00:08:14;3.93;;;2.53;;
18933;SDS011;9599;53.706;10.384;2023-04-03T00:10:42;4.77;;;2.73;;
18933;SDS011;9599;53.706;10.384;2023-04-03T00:13:10;9.07;;;3.27;;
18933;SDS011;9599;53.706;10.384;2023-04-03T00:15:38;7.77;;;3.20;;
18933;SDS011;9599;53.706;10.384;2023-04-03T00:18:07;5.40;;;3.00;;
18933;SDS011;9599;53.706;10.384;2023-04-03T00:20:36;5.03;;;3.00;;
18933;SDS011;9599;53.706;10.384;2023-04-03T00:23:04;4.70;;;2.67;;
18933;SDS011;9599;53.706;10.384;2023-04-03T00:25:32;6.20;;;2.97;;
18933;SDS011;9599;53.706;10.384;2023-04-03T00:28:01;5.40;;;3.50;;
18933;SDS011;9599;53.706;10.384;2023-04-03T00:30:29;7.77;;;3.03;;
18933;SDS011;9599;53.706;10.384;2023-04-03T00:32:58;6.70;;;3.10;;
18933;SDS011;9599;53.706;10.384;2023-04-03T00:35:27;12.27;;;3.33;;
18933;SDS011;9599;53.706;10.384;2023-04-03T00:37:57;5.10;;;3.17;;
18933;SDS011;9599;53.706;10.384;2023-04-03T00:40:25;6.27;;;3.40;;
18933;SDS011;9599;53.706;10.384;2023-04-03T00:42:56;9.23;;;3.70;;
18933;SDS011;9599;53.706;10.384;2023-04-03T00:45:28;8.63;;;3.40;;
18933;SDS011;9599;53.706;10.384;2023-04-03T00:48:04;9.00;;;3.53;;
18933;SDS011;9599;53.706;10.384;2023-04-03T00:50:35;7.67;;;3.40;;
18933;SDS011;9599;53.706;10.384;2023-04-03T00:53:07;6.40;;;3.50;;
18933;SDS011;9599;53.706;10.384;2023-04-03T00:55:38;9.30;;;3.57;;
18933;SDS011;9599;53.706;10.384;2023-04-03T00:58:07;9.10;;;3.60;;
18933;SDS011;9599;53.706;10.384;2023-04-03T01:00:36;7.20;;;3.23;;
18933;SDS011;9599;53.706;10.384;2023-04-03T01:03:08;6.57;;;3.33;;
18933;SDS011;9599;53.706;10.384;2023-04-03T01:05:38;6.53;;;3.03;;
18933;SDS011;9599;53.706;10.384;2023-04-03T01:08:09;6.33;;;3.57;;
18933;SDS011;9599;53.706;10.384;2023-04-03T01:10:37;7.13;;;2.83;;
18933;SDS011;9599;53.706;10.384;2023-04-03T01:13:17;7.07;;;3.50;;
18933;SDS011;9599;53.706;10.384;2023-04-03T01:15:50;8.60;;;3.40;;
18933;SDS011;9599;53.706;10.384;2023-04-03T01:18:18;5.80;;;3.53;;
18933;SDS011;9599;53.706;10.384;2023-04-03T01:24:00;7.33;;;3.40;;
18933;SDS011;9599;53.706;10.384;2023-04-03T01:26:39;10.07;;;4.00;;
18933;SDS011;9599;53.706;10.384;2023-04-03T01:29:08;4.53;;;3.10;;
18933;SDS011;9599;53.706;10.384;2023-04-03T01:34:30;7.83;;;3.43;;
18933;SDS011;9599;53.706;10.384;2023-04-03T01:36:59;6.17;;;2.87;;
18933;SDS011;9599;53.706;10.384;2023-04-03T01:39:27;7.30;;;3.00;;
18933;SDS011;9599;53.706;10.384;2023-04-03T01:41:55;6.73;;;3.33;;
18933;SDS011;9599;53.706;10.384;2023-04-03T01:44:30;6.17;;;3.20;;
18933;SDS011;9599;53.706;10.384;2023-04-03T01:46:58;9.37;;;3.53;;
18933;SDS011;9599;53.706;10.384;2023-04-03T01:49:29;7.67;;;3.90;;
18933;SDS011;9599;53.706;10.384;2023-04-03T01:51:57;7.83;;;3.63;;
18933;SDS011;9599;53.706;10.384;2023-04-03T01:54:25;5.20;;;3.70;;
18933;SDS011;9599;53.706;10.384;2023-04-03T01:56:53;6.10;;;3.80;;
18933;SDS011;9599;53.706;10.384;2023-04-03T01:59:21;6.33;;;3.87;;
18933;SDS011;9599;53.706;10.384;2023-04-03T02:01:50;7.43;;;3.50;;
18933;SDS011;9599;53.706;10.384;2023-04-03T02:04:18;6.83;;;3.73;;
18933;SDS011;9599;53.706;10.384;2023-04-03T02:06:47;7.77;;;4.00;;
18933;SDS011;9599;53.706;10.384;2023-04-03T02:09:15;7.23;;;3.90;;
18933;SDS011;9599;53.706;10.384;2023-04-03T02:11:43;9.47;;;4.20;;
18933;SDS011;9599;53.706;10.384;2023-04-03T02:14:12;8.77;;;4.03;;
18933;SDS011;9599;53.706;10.384;2023-04-03T02:16:40;7.77;;;4.00;;
18933;SDS011;9599;53.706;10.384;2023-04-03T02:19:08;7.37;;;4.10;;
18933;SDS011;9599;53.706;10.384;2023-04-03T02:21:36;6.70;;;4.23;;
18933;SDS011;9599;53.706;10.384;2023-04-03T02:24:05;7.77;;;4.13;;
18933;SDS011;9599;53.706;10.384;2023-04-03T02:26:33;7.43;;;3.83;;
18933;SDS011;9599;53.706;10.384;2023-04-03T02:29:01;8.53;;;4.37;;
18933;SDS011;9599;53.706;10.384;2023-04-03T02:31:29;6.70;;;3.80;;
18933;SDS011;9599;53.706;10.384;2023-04-03T02:34:00;7.40;;;4.33;;
18933;SDS011;9599;53.706;10.384;2023-04-03T02:36:28;6.47;;;4.33;;
18933;SDS011;9599;53.706;10.384;2023-04-03T02:39:02;10.60;;;5.10;;
18933;SDS011;9599;53.706;10.384;2023-04-03T02:41:31;9.33;;;4.83;;
18933;SDS011;9599;53.706;10.384;2023-04-03T02:44:05;11.77;;;5.40;;
18933;SDS011;9599;53.706;10.384;2023-04-03T02:46:34;9.37;;;5.20;;
18933;SDS011;9599;53.706;10.384;2023-04-03T02:49:02;10.60;;;5.20;;
18933;SDS011;9599;53.706;10.384;2023-04-03T02:51:31;12.13;;;5.23;;
18933;SDS011;9599;53.706;10.384;2023-04-03T02:53:59;11.20;;;5.10;;
18933;SDS011;9599;53.706;10.384;2023-04-03T02:56:32;9.57;;;5.27;;
18933;SDS011;9599;53.706;10.384;2023-04-03T02:59:00;10.27;;;4.90;;
18933;SDS011;9599;53.706;10.384;2023-04-03T03:01:30;11.83;;;5.50;;
18933;SDS011;9599;53.706;10.384;2023-04-03T03:03:59;8.80;;;5.10;;
18933;SDS011;9599;53.706;10.384;2023-04-03T03:06:27;12.30;;;5.17;;
18933;SDS011;9599;53.706;10.384;2023-04-03T03:08:55;9.60;;;5.20;;
18933;SDS011;9599;53.706;10.384;2023-04-03T03:11:23;11.83;;;5.33;;
18933;SDS011;9599;53.706;10.384;2023-04-03T03:13:53;9.60;;;4.90;;
18933;SDS011;9599;53.706;10.384;2023-04-03T03:16:23;7.70;;;4.47;;
18933;SDS011;9599;53.706;10.384;2023-04-03T03:18:51;10.80;;;4.90;;
18933;SDS011;9599;53.706;10.384;2023-04-03T03:21:19;7.97;;;4.43;;
18933;SDS011;9599;53.706;10.384;2023-04-03T03:23:47;8.40;;;4.30;;
18933;SDS011;9599;53.706;10.384;2023-04-03T03:26:15;9.60;;;4.40;;
18933;SDS011;9599;53.706;10.384;2023-04-03T03:28:43;6.83;;;4.30;;
18933;SDS011;9599;53.706;10.384;2023-04-03T03:31:12;6.63;;;4.23;;
18933;SDS011;9599;53.706;10.384;2023-04-03T03:33:41;8.80;;;4.13;;
18933;SDS011;9599;53.706;10.384;2023-04-03T03:36:09;7.90;;;3.80;;
18933;SDS011;9599;53.706;10.384;2023-04-03T03:38:37;8.47;;;4.10;;
18933;SDS011;9599;53.706;10.384;2023-04-03T03:41:05;10.07;;;4.17;;
18933;SDS011;9599;53.706;10.384;2023-04-03T03:43:34;7.73;;;3.80;;
18933;SDS011;9599;53.706;10.384;2023-04-03T03:46:04;7.17;;;4.17;;
18933;SDS011;9599;53.706;10.384;2023-04-03T03:48:33;6.10;;;3.73;;
18933;SDS011;9599;53.706;10.384;2023-04-03T03:51:01;5.57;;;3.73;;
18933;SDS011;9599;53.706;10.384;2023-04-03T03:53:33;6.50;;;4.00;;
18933;SDS011;9599;53.706;10.384;2023-04-03T03:56:05;8.23;;;4.37;;
18933;SDS011;9599;53.706;10.384;2023-04-03T03:58:36;9.97;;;4.40;;
18933;SDS011;9599;53.706;10.384;2023-04-03T04:01:04;8.67;;;4.53;;
18933;SDS011;9599;53.706;10.384;2023-04-03T04:03:40;7.43;;;4.63;;
18933;SDS011;9599;53.706;10.384;2023-04-03T04:06:11;5.23;;;3.80;;
18933;SDS011;9599;53.706;10.384;2023-04-03T04:08:40;7.83;;;3.97;;
18933;SDS011;9599;53.706;10.384;2023-04-03T04:11:10;10.53;;;4.20;;
18933;SDS011;9599;53.706;10.384;2023-04-03T04:13:39;6.73;;;4.30;;
18933;SDS011;9599;53.706;10.384;2023-04-03T04:16:10;6.87;;;4.13;;
18933;SDS011;9599;53.706;10.384;2023-04-03T04:18:38;6.83;;;4.33;;
18933;SDS011;9599;53.706;10.384;2023-04-03T04:21:07;6.30;;;4.20;;
18933;SDS011;9599;53.706;10.384;2023-04-03T04:23:37;8.73;;;4.93;;
18933;SDS011;9599;53.706;10.384;2023-04-03T04:26:05;9.03;;;4.67;;
18933;SDS011;9599;53.706;10.384;2023-04-03T04:28:36;8.60;;;4.33;;
18933;SDS011;9599;53.706;10.384;2023-04-03T04:31:05;7.47;;;4.50;;
18933;SDS011;9599;53.706;10.384;2023-04-03T04:33:33;7.67;;;4.30;;
18933;SDS011;9599;53.706;10.384;2023-04-03T04:36:04;11.00;;;4.83;;
18933;SDS011;9599;53.706;10.384;2023-04-03T04:38:34;8.50;;;4.60;;
18933;SDS011;9599;53.706;10.384;2023-04-03T04:41:02;8.57;;;4.83;;
18933;SDS011;9599;53.706;10.384;2023-04-03T04:43:30;8.20;;;4.80;;
18933;SDS011;9599;53.706;10.384;2023-04-03T04:46:02;8.33;;;4.73;;
18933;SDS011;9599;53.706;10.384;2023-04-03T04:48:36;8.83;;;4.50;;
18933;SDS011;9599;53.706;10.384;2023-04-03T04:51:05;10.27;;;5.07;;
18933;SDS011;9599;53.706;10.384;2023-04-03T04:53:37;11.03;;;5.27;;
18933;SDS011;9599;53.706;10.384;2023-04-03T04:56:06;11.80;;;4.97;;
18933;SDS011;9599;53.706;10.384;2023-04-03T04:58:36;7.90;;;4.93;;
18933;SDS011;9599;53.706;10.384;2023-04-03T05:01:05;9.97;;;5.17;;
18933;SDS011;9599;53.706;10.384;2023-04-03T05:03:38;7.60;;;4.90;;
18933;SDS011;9599;53.706;10.384;2023-04-03T05:06:06;10.07;;;5.10;;
18933;SDS011;9599;53.706;10.384;2023-04-03T05:08:36;10.17;;;5.10;;
18933;SDS011;9599;53.706;10.384;2023-04-03T05:11:07;7.03;;;4.90;;
18933;SDS011;9599;53.706;10.384;2023-04-03T05:13:37;10.53;;;5.00;;
18933;SDS011;9599;53.706;10.384;2023-04-03T05:16:05;9.43;;;4.97;;
18933;SDS011;9599;53.706;10.384;2023-04-03T05:18:34;11.23;;;5.33;;
18933;SDS011;9599;53.706;10.384;2023-04-03T05:21:07;11.00;;;4.90;;
18933;SDS011;9599;53.706;10.384;2023-04-03T05:23:36;8.30;;;5.20;;
18933;SDS011;9599;53.706;10.384;2023-04-03T05:26:05;9.93;;;5.83;;
18933;SDS011;9599;53.706;10.384;2023-04-03T05:28:33;12.17;;;5.97;;
18933;SDS011;9599;53.706;10.384;2023-04-03T05:31:02;12.10;;;5.13;;
18933;SDS011;9599;53.706;10.384;2023-04-03T05:33:34;9.13;;;5.17;;
18933;SDS011;9599;53.706;10.384;2023-04-03T05:36:05;11.10;;;5.33;;
18933;SDS011;9599;53.706;10.384;2023-04-03T05:38:40;11.53;;;6.03;;
18933;SDS011;9599;53.706;10.384;2023-04-03T05:41:09;8.80;;;6.07;;
18933;SDS011;9599;53.706;10.384;2023-04-03T05:43:37;10.43;;;5.83;;
18933;SDS011;9599;53.706;10.384;2023-04-03T05:46:09;9.70;;;6.30;;
18933;SDS011;9599;53.706;10.384;2023-04-03T05:48:42;9.70;;;5.67;;
18933;SDS011;9599;53.706;10.384;2023-04-03T05:51:15;9.20;;;6.23;;
18933;SDS011;9599;53.706;10.384;2023-04-03T05:53:58;10.67;;;5.90;;
18933;SDS011;9599;53.706;10.384;2023-04-03T05:56:30;9.27;;;6.20;;
18933;SDS011;9599;53.706;10.384;2023-04-03T05:58:58;11.23;;;6.77;;
18933;SDS011;9599;53.706;10.384;2023-04-03T06:01:26;12.83;;;6.53;;
18933;SDS011;9599;53.706;10.384;2023-04-03T06:03:55;12.57;;;7.70;;
18933;SDS011;9599;53.706;10.384;2023-04-03T06:06:25;14.33;;;7.47;;
18933;SDS011;9599;53.706;10.384;2023-04-03T06:08:56;14.13;;;7.83;;
18933;SDS011;9599;53.706;10.384;2023-04-03T06:11:24;13.50;;;7.60;;
18933;SDS011;9599;53.706;10.384;2023-04-03T06:13:52;15.07;;;7.77;;
18933;SDS011;9599;53.706;10.384;2023-04-03T06:16:20;13.83;;;7.40;;
18933;SDS011;9599;53.706;10.384;2023-04-03T06:18:48;12.80;;;8.30;;
18933;SDS011;9599;53.706;10.384;2023-04-03T06:21:16;13.13;;;7.40;;
18933;SDS011;9599;53.706;10.384;2023-04-03T06:23:45;10.30;;;5.50;;
18933;SDS011;9599;53.706;10.384;2023-04-03T06:26:14;6.57;;;4.23;;
18933;SDS011;9599;53.706;10.384;2023-04-03T06:28:42;13.20;;;7.80;;
18933;SDS011;9599;53.706;10.384;2023-04-03T06:31:10;11.23;;;6.70;;
18933;SDS011;9599;53.706;10.384;2023-04-03T06:33:38;10.37;;;6.10;;
18933;SDS011;9599;53.706;10.384;2023-04-03T06:36:06;8.30;;;5.03;;
18933;SDS011;9599;53.706;10.384;2023-04-03T06:38:35;10.40;;;5.30;;
18933;SDS011;9599;53.706;10.384;2023-04-03T06:41:03;10.03;;;4.37;;
18933;SDS011;9599;53.706;10.384;2023-04-03T06:43:32;7.20;;;4.33;;
18933;SDS011;9599;53.706;10.384;2023-04-03T06:46:00;8.00;;;4.00;;
18933;SDS011;9599;53.706;10.384;2023-04-03T06:48:28;5.60;;;3.60;;
18933;SDS011;9599;53.706;10.384;2023-04-03T06:50:57;6.17;;;3.63;;
18933;SDS011;9599;53.706;10.384;2023-04-03T06:53:25;8.63;;;3.73;;
18933;SDS011;9599;53.706;10.384;2023-04-03T06:55:53;7.83;;;3.43;;
18933;SDS011;9599;53.706;10.384;2023-04-03T06:58:21;7.47;;;3.37;;
18933;SDS011;9599;53.706;10.384;2023-04-03T07:00:50;5.20;;;3.60;;
18933;SDS011;9599;53.706;10.384;2023-04-03T07:03:18;7.53;;;3.93;;
18933;SDS011;9599;53.706;10.384;2023-04-03T07:05:46;7.77;;;3.80;;
18933;SDS011;9599;53.706;10.384;2023-04-03T07:08:14;7.77;;;3.57;;
18933;SDS011;9599;53.706;10.384;2023-04-03T07:10:42;10.00;;;3.87;;
18933;SDS011;9599;53.706;10.384;2023-04-03T07:13:10;7.10;;;3.50;;
18933;SDS011;9599;53.706;10.384;2023-04-03T07:15:37;6.40;;;3.20;;
18933;SDS011;9599;53.706;10.384;2023-04-03T07:18:07;8.30;;;3.40;;
18933;SDS011;9599;53.706;10.384;2023-04-03T07:20:35;5.07;;;2.77;;
18933;SDS011;9599;53.706;10.384;2023-04-03T07:23:03;7.13;;;2.80;;
18933;SDS011;9599;53.706;10.384;2023-04-03T07:25:31;6.80;;;2.90;;
18933;SDS011;9599;53.706;10.384;2023-04-03T07:28:00;4.93;;;2.63;;
18933;SDS011;9599;53.706;10.384;2023-04-03T07:30:28;6.30;;;3.20;;
18933;SDS011;9599;53.706;10.384;2023-04-03T07:32:56;4.07;;;2.77;;
18933;SDS011;9599;53.706;10.384;2023-04-03T07:35:25;6.03;;;2.63;;
18933;SDS011;9599;53.706;10.384;2023-04-03T07:37:53;4.07;;;2.60;;
18933;SDS011;9599;53.706;10.384;2023-04-03T07:40:21;4.53;;;2.33;;
18933;SDS011;9599;53.706;10.384;2023-04-03T07:42:49;5.57;;;2.63;;
18933;SDS011;9599;53.706;10.384;2023-04-03T07:45:17;2.97;;;2.00;;
18933;SDS011;9599;53.706;10.384;2023-04-03T07:47:45;4.87;;;2.30;;
18933;SDS011;9599;53.706;10.384;2023-04-03T07:50:14;5.40;;;2.13;;
18933;SDS011;9599;53.706;10.384;2023-04-03T07:52:43;3.70;;;1.77;;
18933;SDS011;9599;53.706;10.384;2023-04-03T07:55:11;4.77;;;2.10;;
18933;SDS011;9599;53.706;10.384;2023-04-03T07:57:39;3.97;;;1.90;;
18933;SDS011;9599;53.706;10.384;2023-04-03T08:00:09;3.73;;;1.90;;
18933;SDS011;9599;53.706;10.384;2023-04-03T08:02:39;4.03;;;1.73;;
18933;SDS011;9599;53.706;10.384;2023-04-03T08:05:08;3.87;;;2.27;;
18933;SDS011;9599;53.706;10.384;2023-04-03T08:07:36;3.10;;;2.00;;
18933;SDS011;9599;53.706;10.384;2023-04-03T08:10:06;6.57;;;1.87;;
18933;SDS011;9599;53.706;10.384;2023-04-03T08:12:34;3.20;;;1.57;;
18933;SDS011;9599;53.706;10.384;2023-04-03T08:15:04;2.70;;;1.37;;
18933;SDS011;9599;53.706;10.384;2023-04-03T08:17:33;2.93;;;1.40;;
18933;SDS011;9599;53.706;10.384;2023-04-03T08:20:02;3.87;;;1.57;;
18933;SDS011;9599;53.706;10.384;2023-04-03T08:22:31;3.20;;;1.57;;
18933;SDS011;9599;53.706;10.384;2023-04-03T08:24:59;2.27;;;1.17;;
18933;SDS011;9599;53.706;10.384;2023-04-03T08:27:29;2.60;;;1.67;;
18933;SDS011;9599;53.706;10.384;2023-04-03T08:29:57;2.87;;;1.20;;
18933;SDS011;9599;53.706;10.384;2023-04-03T08:32:26;3.53;;;1.60;;
18933;SDS011;9599;53.706;10.384;2023-04-03T08:34:54;2.77;;;1.27;;
18933;SDS011;9599;53.706;10.384;2023-04-03T08:37:22;3.50;;;1.57;;
18933;SDS011;9599;53.706;10.384;2023-04-03T08:39:50;4.43;;;1.30;;
18933;SDS011;9599;53.706;10.384;2023-04-03T08:42:19;2.87;;;1.50;;
18933;SDS011;9599;53.706;10.384;2023-04-03T08:45:03;5.27;;;1.50;;
18933;SDS011;9599;53.706;10.384;2023-04-03T08:47:38;3.37;;;1.40;;
18933;SDS011;9599;53.706;10.384;2023-04-03T08:50:11;3.43;;;1.60;;
18933;SDS011;9599;53.706;10.384;2023-04-03T08:52:44;3.30;;;1.50;;
18933;SDS011;9599;53.706;10.384;2023-04-03T08:55:19;2.77;;;1.20;;
18933;SDS011;9599;53.706;10.384;2023-04-03T08:57:51;3.17;;;1.23;;
18933;SDS011;9599;53.706;10.384;2023-04-03T09:00:30;2.87;;;1.70;;
18933;SDS011;9599;53.706;10.384;2023-04-03T09:03:02;2.50;;;1.40;;
18933;SDS011;9599;53.706;10.384;2023-04-03T09:05:32;4.23;;;1.73;;
18933;SDS011;9599;53.706;10.384;2023-04-03T09:08:07;2.63;;;1.30;;
18933;SDS011;9599;53.706;10.384;2023-04-03T09:10:41;3.08;;;1.10;;
18933;SDS011;9599;53.706;10.384;2023-04-03T09:13:11;2.67;;;1.30;;
18933;SDS011;9599;53.706;10.384;2023-04-03T09:15:51;2.50;;;1.50;;
18933;SDS011;9599;53.706;10.384;2023-04-03T09:18:21;3.33;;;1.30;;
18933;SDS011;9599;53.706;10.384;2023-04-03T09:20:54;3.23;;;1.20;;
18933;SDS011;9599;53.706;10.384;2023-04-03T09:23:28;3.00;;;1.20;;
18933;SDS011;9599;53.706;10.384;2023-04-03T09:25:59;2.70;;;1.10;;
18933;SDS011;9599;53.706;10.384;2023-04-03T09:28:31;2.03;;;1.13;;
18933;SDS011;9599;53.706;10.384;2023-04-03T09:31:18;5.10;;;1.20;;
18933;SDS011;9599;53.706;10.384;2023-04-03T09:33:48;1.53;;;1.10;;
18933;SDS011;9599;53.706;10.384;2023-04-03T09:39:12;3.50;;;1.00;;
18933;SDS011;9599;53.706;10.384;2023-04-03T09:41:42;5.23;;;1.40;;
18933;SDS011;9599;53.706;10.384;2023-04-03T09:44:24;3.00;;;1.43;;
18933;SDS011;9599;53.706;10.384;2023-04-03T09:46:54;3.47;;;1.37;;
18933;SDS011;9599;53.706;10.384;2023-04-03T09:49:22;2.33;;;1.23;;
18933;SDS011;9599;53.706;10.384;2023-04-03T09:51:50;3.30;;;1.47;;
18933;SDS011;9599;53.706;10.384;2023-04-03T09:57:09;5.10;;;1.70;;
18933;SDS011;9599;53.706;10.384;2023-04-03T09:59:41;3.17;;;1.80;;
18933;SDS011;9599;53.706;10.384;2023-04-03T10:02:25;4.27;;;1.50;;
18933;SDS011;9599;53.706;10.384;2023-04-03T10:04:59;2.97;;;1.37;;
18933;SDS011;9599;53.706;10.384;2023-04-03T10:07:31;2.83;;;1.03;;
18933;SDS011;9599;53.706;10.384;2023-04-03T10:10:03;2.57;;;1.27;;
18933;SDS011;9599;53.706;10.384;2023-04-03T10:12:44;2.57;;;1.07;;
18933;SDS011;9599;53.706;10.384;2023-04-03T10:15:12;1.80;;;1.30;;
18933;SDS011;9599;53.706;10.384;2023-04-03T10:17:49;2.63;;;1.00;;
18933;SDS011;9599;53.706;10.384;2023-04-03T10:20:26;2.30;;;0.93;;
18933;SDS011;9599;53.706;10.384;2023-04-03T10:23:02;1.57;;;0.87;;
18933;SDS011;9599;53.706;10.384;2023-04-03T10:25:43;2.87;;;1.07;;
18933;SDS011;9599;53.706;10.384;2023-04-03T10:28:23;4.17;;;1.37;;
18933;SDS011;9599;53.706;10.384;2023-04-03T10:31:02;1.50;;;1.17;;
18933;SDS011;9599;53.706;10.384;2023-04-03T10:33:39;3.67;;;1.30;;
18933;SDS011;9599;53.706;10.384;2023-04-03T10:36:21;2.37;;;1.30;;
18933;SDS011;9599;53.706;10.384;2023-04-03T10:38:57;2.00;;;1.00;;
18933;SDS011;9599;53.706;10.384;2023-04-03T10:41:32;1.30;;;1.10;;
18933;SDS011;9599;53.706;10.384;2023-04-03T10:44:12;3.70;;;1.17;;
18933;SDS011;9599;53.706;10.384;2023-04-03T10:46:49;1.83;;;0.90;;
18933;SDS011;9599;53.706;10.384;2023-04-03T10:49:25;2.23;;;1.00;;
18933;SDS011;9599;53.706;10.384;2023-04-03T10:52:06;2.00;;;1.00;;
18933;SDS011;9599;53.706;10.384;2023-04-03T10:54:42;1.93;;;1.03;;
18933;SDS011;9599;53.706;10.384;2023-04-03T10:57:14;1.67;;;1.00;;
18933;SDS011;9599;53.706;10.384;2023-04-03T10:59:43;0.93;;;0.83;;
18933;SDS011;9599;53.706;10.384;2023-04-03T11:02:16;0.80;;;0.80;;
18933;SDS011;9599;53.706;10.384;2023-04-03T11:04:56;2.47;;;1.17;;
18933;SDS011;9599;53.706;10.384;2023-04-03T11:07:32;2.93;;;1.00;;
18933;SDS011;9599;53.706;10.384;2023-04-03T11:10:06;2.87;;;1.00;;
18933;SDS011;9599;53.706;10.384;2023-04-03T11:12:41;2.30;;;1.03;;
18933;SDS011;9599;53.706;10.384;2023-04-03T11:15:14;3.07;;;1.10;;
18933;SDS011;9599;53.706;10.384;2023-04-03T11:17:45;2.03;;;0.90;;
18933;SDS011;9599;53.706;10.384;2023-04-03T11:20:21;3.60;;;0.90;;
18933;SDS011;9599;53.706;10.384;2023-04-03T11:22:56;2.57;;;1.13;;
18933;SDS011;9599;53.706;10.384;2023-04-03T11:25:27;1.60;;;1.00;;
18933;SDS011;9599;53.706;10.384;2023-04-03T11:27:59;2.90;;;1.30;;
18933;SDS011;9599;53.706;10.384;2023-04-03T11:30:30;3.73;;;1.10;;
18933;SDS011;9599;53.706;10.384;2023-04-03T11:33:05;2.40;;;1.10;;
18933;SDS011;9599;53.706;10.384;2023-04-03T11:35:48;3.10;;;1.03;;
18933;SDS011;9599;53.706;10.384;2023-04-03T11:38:20;2.50;;;1.30;;
18933;SDS011;9599;53.706;10.384;2023-04-03T11:40:50;0.97;;;0.60;;
18933;SDS011;9599;53.706;10.384;2023-04-03T11:43:21;2.50;;;0.90;;
18933;SDS011;9599;53.706;10.384;2023-04-03T11:45:53;0.90;;;0.87;;
18933;SDS011;9599;53.706;10.384;2023-04-03T11:48:45;1.97;;;1.03;;
18933;SDS011;9599;53.706;10.384;2023-04-03T12:00:50;1.93;;;1.10;;
18933;SDS011;9599;53.706;10.384;2023-04-03T12:12:57;2.23;;;1.40;;
18933;SDS011;9599;53.706;10.384;2023-04-03T12:22:02;2.03;;;1.23;;
18933;SDS011;9599;53.706;10.384;2023-04-03T12:24:37;1.37;;;1.20;;
18933;SDS011;9599;53.706;10.384;2023-04-03T12:27:14;1.97;;;1.37;;
18933;SDS011;9599;53.706;10.384;2023-04-03T12:29:54;1.63;;;1.00;;
18933;SDS011;9599;53.706;10.384;2023-04-03T12:32:48;2.27;;;1.07;;
18933;SDS011;9599;53.706;10.384;2023-04-03T12:35:39;1.20;;;1.10;;
18933;SDS011;9599;53.706;10.384;2023-04-03T12:41:13;1.90;;;1.20;;
18933;SDS011;9599;53.706;10.384;2023-04-03T12:43:59;1.50;;;1.10;;
18933;SDS011;9599;53.706;10.384;2023-04-03T12:46:46;1.50;;;0.97;;
18933;SDS011;9599;53.706;10.384;2023-04-03T12:49:22;3.80;;;1.10;;
18933;SDS011;9599;53.706;10.384;2023-04-03T12:51:59;1.70;;;1.30;;
18933;SDS011;9599;53.706;10.384;2023-04-03T12:54:31;3.37;;;1.63;;
18933;SDS011;9599;53.706;10.384;2023-04-03T12:57:08;2.90;;;1.30;;
18933;SDS011;9599;53.706;10.384;2023-04-03T12:59:37;1.87;;;1.20;;
18933;SDS011;9599;53.706;10.384;2023-04-03T13:02:10;2.67;;;1.00;;
18933;SDS011;9599;53.706;10.384;2023-04-03T13:04:49;2.27;;;1.07;;
18933;SDS011;9599;53.706;10.384;2023-04-03T13:07:19;3.13;;;1.30;;
18933;SDS011;9599;53.706;10.384;2023-04-03T13:09:58;1.97;;;1.10;;
18933;SDS011;9599;53.706;10.384;2023-04-03T13:12:28;3.13;;;1.20;;
18933;SDS011;9599;53.706;10.384;2023-04-03T13:14:58;2.37;;;1.10;;
18933;SDS011;9599;53.706;10.384;2023-04-03T13:17:30;3.27;;;0.97;;
18933;SDS011;9599;53.706;10.384;2023-04-03T13:20:09;1.23;;;1.10;;
18933;SDS011;9599;53.706;10.384;2023-04-03T13:22:39;2.13;;;1.37;;
18933;SDS011;9599;53.706;10.384;2023-04-03T13:25:17;1.70;;;1.17;;
18933;SDS011;9599;53.706;10.384;2023-04-03T13:27:47;1.60;;;1.03;;
18933;SDS011;9599;53.706;10.384;2023-04-03T13:30:18;1.67;;;1.30;;
18933;SDS011;9599;53.706;10.384;2023-04-03T13:32:57;1.67;;;1.00;;
18933;SDS011;9599;53.706;10.384;2023-04-03T13:35:27;2.13;;;1.30;;
18933;SDS011;9599;53.706;10.384;2023-04-03T13:38:05;2.07;;;1.20;;
18933;SDS011;9599;53.706;10.384;2023-04-03T13:40:50;1.77;;;1.00;;
18933;SDS011;9599;53.706;10.384;2023-04-03T13:43:20;1.23;;;0.97;;
18933;SDS011;9599;53.706;10.384;2023-04-03T13:45:58;3.70;;;1.10;;
18933;SDS011;9599;53.706;10.384;2023-04-03T13:48:35;2.80;;;1.30;;
18933;SDS011;9599;53.706;10.384;2023-04-03T13:51:05;2.93;;;1.60;;
18933;SDS011;9599;53.706;10.384;2023-04-03T13:53:45;2.03;;;1.40;;
18933;SDS011;9599;53.706;10.384;2023-04-03T13:56:19;2.80;;;1.40;;
18933;SDS011;9599;53.706;10.384;2023-04-03T13:58:57;2.20;;;1.13;;
18933;SDS011;9599;53.706;10.384;2023-04-03T14:01:34;2.60;;;1.23;;
18933;SDS011;9599;53.706;10.384;2023-04-03T14:04:11;4.27;;;1.30;;
18933;SDS011;9599;53.706;10.384;2023-04-03T14:06:43;2.13;;;1.23;;
18933;SDS011;9599;53.706;10.384;2023-04-03T14:09:11;1.20;;;1.10;;
18933;SDS011;9599;53.706;10.384;2023-04-03T14:11:41;2.87;;;1.33;;
18933;SDS011;9599;53.706;10.384;2023-04-03T14:14:11;3.53;;;1.10;;
18933;SDS011;9599;53.706;10.384;2023-04-03T14:16:43;3.03;;;1.27;;
18933;SDS011;9599;53.706;10.384;2023-04-03T14:19:20;1.53;;;0.97;;
18933;SDS011;9599;53.706;10.384;2023-04-03T14:21:50;1.23;;;1.10;;
18933;SDS011;9599;53.706;10.384;2023-04-03T14:24:18;3.53;;;2.00;;
18933;SDS011;9599;53.706;10.384;2023-04-03T14:26:50;2.40;;;1.50;;
18933;SDS011;9599;53.706;10.384;2023-04-03T14:29:20;2.70;;;1.20;;
18933;SDS011;9599;53.706;10.384;2023-04-03T14:31:49;2.60;;;1.50;;
18933;SDS011;9599;53.706;10.384;2023-04-03T14:34:33;1.60;;;1.10;;
18933;SDS011;9599;53.706;10.384;2023-04-03T14:37:00;2.60;;;1.17;;
18933;SDS011;9599;53.706;10.384;2023-04-03T14:39:28;3.03;;;1.40;;
18933;SDS011;9599;53.706;10.384;2023-04-03T14:41:57;3.60;;;1.60;;
18933;SDS011;9599;53.706;10.384;2023-04-03T14:44:26;3.00;;;1.50;;
18933;SDS011;9599;53.706;10.384;2023-04-03T14:46:54;3.37;;;1.60;;
18933;SDS011;9599;53.706;10.384;2023-04-03T14:49:24;3.67;;;1.67;;
18933;SDS011;9599;53.706;10.384;2023-04-03T14:51:55;4.83;;;1.87;;
18933;SDS011;9599;53.706;10.384;2023-04-03T14:54:23;1.93;;;1.43;;
18933;SDS011;9599;53.706;10.384;2023-04-03T14:56:55;3.87;;;1.57;;
18933;SDS011;9599;53.706;10.384;2023-04-03T14:59:26;2.27;;;1.40;;
18933;SDS011;9599;53.706;10.384;2023-04-03T15:01:55;2.43;;;1.30;;
18933;SDS011;9599;53.706;10.384;2023-04-03T15:04:23;4.27;;;1.60;;
18933;SDS011;9599;53.706;10.384;2023-04-03T15:06:51;1.93;;;1.20;;
18933;SDS011;9599;53.706;10.384;2023-04-03T15:09:21;3.35;;;1.58;;
18933;SDS011;9599;53.706;10.384;2023-04-03T15:11:51;2.73;;;1.53;;
18933;SDS011;9599;53.706;10.384;2023-04-03T15:14:21;3.73;;;1.23;;
18933;SDS011;9599;53.706;10.384;2023-04-03T15:17:02;1.73;;;1.33;;
18933;SDS011;9599;53.706;10.384;2023-04-03T15:19:31;3.90;;;1.40;;
18933;SDS011;9599;53.706;10.384;2023-04-03T15:22:03;1.73;;;1.23;;
18933;SDS011;9599;53.706;10.384;2023-04-03T15:24:32;3.10;;;1.40;;
18933;SDS011;9599;53.706;10.384;2023-04-03T15:27:00;2.83;;;1.60;;
18933;SDS011;9599;53.706;10.384;2023-04-03T15:29:30;3.40;;;1.63;;
18933;SDS011;9599;53.706;10.384;2023-04-03T15:31:58;1.87;;;1.37;;
18933;SDS011;9599;53.706;10.384;2023-04-03T15:34:25;4.87;;;1.50;;
18933;SDS011;9599;53.706;10.384;2023-04-03T15:36:54;3.77;;;1.53;;
18933;SDS011;9599;53.706;10.384;2023-04-03T15:39:23;3.33;;;1.50;;
18933;SDS011;9599;53.706;10.384;2023-04-03T15:41:52;3.10;;;1.30;;
18933;SDS011;9599;53.706;10.384;2023-04-03T15:44:20;2.67;;;1.90;;
18933;SDS011;9599;53.706;10.384;2023-04-03T15:46:50;3.43;;;1.40;;
18933;SDS011;9599;53.706;10.384;2023-04-03T15:49:18;1.90;;;1.30;;